createdAt,value
2023-05-21T00:00:48.680Z,2.40
2023-05-21T00:01:50.525Z,2.35
2023-05-21T00:02:52.554Z,2.73
2023-05-21T00:03:54.543Z,2.73
2023-05-21T00:04:56.383Z,2.50
2023-05-21T00:05:58.789Z,2.53
2023-05-21T00:07:00.927Z,2.50
2023-05-21T00:08:02.773Z,2.40
2023-05-21T00:09:06.452Z,2.50
2023-05-21T00:10:09.031Z,2.60
2023-05-21T00:11:11.163Z,2.57
2023-05-21T00:12:13.262Z,2.83
2023-05-21T00:13:15.331Z,2.30
2023-05-21T00:14:17.328Z,2.60
2023-05-21T00:15:19.356Z,2.77
2023-05-21T00:16:22.910Z,2.60
2023-05-21T00:17:26.076Z,2.50
2023-05-21T00:18:28.412Z,2.70
2023-05-21T00:19:33.633Z,2.47
2023-05-21T00:20:35.626Z,2.50
2023-05-21T00:21:38.186Z,2.50
2023-05-21T00:22:42.550Z,2.50
2023-05-21T00:23:45.518Z,2.40
2023-05-21T00:24:47.410Z,2.80
2023-05-21T00:25:50.516Z,2.77
2023-05-21T00:26:52.402Z,2.83
2023-05-21T00:27:55.589Z,2.50
2023-05-21T00:28:57.677Z,2.42
2023-05-21T00:29:59.577Z,2.70
2023-05-21T00:31:01.831Z,2.57
2023-05-21T00:32:04.288Z,2.40
2023-05-21T00:33:06.278Z,2.50
2023-05-21T00:34:08.207Z,2.55
2023-05-21T00:35:10.128Z,2.53
2023-05-21T00:36:14.430Z,2.50
2023-05-21T00:37:16.546Z,2.40
2023-05-21T00:38:18.815Z,2.73
2023-05-21T00:39:21.062Z,2.70
2023-05-21T00:40:23.047Z,2.80
2023-05-21T00:41:26.225Z,2.33
2023-05-21T00:42:30.934Z,2.37
2023-05-21T00:43:33.119Z,2.63
2023-05-21T00:44:35.534Z,2.50
2023-05-21T00:45:38.068Z,2.40
2023-05-21T00:46:40.928Z,2.73
2023-05-21T00:47:45.071Z,2.37
2023-05-21T00:48:48.714Z,2.25
2023-05-21T00:49:54.255Z,2.30
2023-05-21T00:50:56.718Z,2.20
2023-05-21T00:52:01.633Z,2.83
2023-05-21T00:53:03.916Z,2.60
2023-05-21T00:54:06.144Z,2.65
2023-05-21T00:55:09.720Z,2.47
2023-05-21T00:56:11.826Z,2.77
2023-05-21T00:57:14.598Z,2.35
2023-05-21T00:58:18.406Z,2.67
2023-05-21T00:59:20.605Z,2.73
2023-05-21T01:00:24.720Z,2.60
2023-05-21T01:01:27.828Z,2.30
2023-05-21T01:02:33.164Z,2.43
2023-05-21T01:03:38.652Z,2.70
2023-05-21T01:04:40.762Z,2.45
2023-05-21T01:05:45.241Z,2.67
2023-05-21T01:06:47.173Z,2.63
2023-05-21T01:07:49.141Z,2.17
2023-05-21T01:08:51.111Z,2.50
2023-05-21T01:09:54.243Z,2.40
2023-05-21T01:10:58.526Z,2.45
2023-05-21T01:12:01.056Z,2.40
2023-05-21T01:13:03.220Z,2.70
2023-05-21T01:14:09.362Z,2.30
2023-05-21T01:15:12.119Z,2.50
2023-05-21T01:16:14.255Z,2.42
2023-05-21T01:17:16.951Z,2.70
2023-05-21T01:18:20.183Z,2.53
2023-05-21T01:19:24.223Z,2.50
2023-05-21T01:20:28.566Z,2.50
2023-05-21T01:21:31.071Z,2.60
2023-05-21T01:22:35.702Z,2.50
2023-05-21T01:23:37.549Z,2.63
2023-05-21T01:24:39.444Z,2.35
2023-05-21T01:25:42.345Z,2.37
2023-05-21T01:26:46.550Z,2.30
2023-05-21T01:27:49.435Z,2.30
2023-05-21T01:28:51.668Z,2.50
2023-05-21T01:29:53.697Z,2.50
2023-05-21T01:31:02.875Z,2.40
2023-05-21T01:32:34.766Z,2.40
2023-05-21T01:33:49.341Z,2.60
2023-05-21T01:35:14.472Z,2.33
2023-05-21T01:36:24.417Z,2.77
2023-05-21T01:37:40.553Z,2.23
2023-05-21T01:38:57.591Z,2.60
2023-05-21T01:40:10.696Z,2.60
2023-05-21T01:41:17.030Z,2.20
2023-05-21T01:42:23.695Z,2.67
2023-05-21T01:43:30.018Z,2.57
2023-05-21T01:44:34.337Z,2.37
2023-05-21T01:45:42.147Z,2.70
2023-05-21T01:46:44.051Z,2.70
2023-05-21T01:47:50.451Z,2.37
2023-05-21T01:48:56.305Z,3.47
2023-05-21T01:50:01.701Z,2.30
2023-05-21T01:51:06.565Z,2.57
2023-05-21T01:52:09.351Z,2.30
2023-05-21T01:53:11.580Z,2.50
2023-05-21T01:54:14.226Z,2.60
2023-05-21T01:55:16.089Z,2.43
2023-05-21T01:56:18.158Z,2.60
2023-05-21T01:57:21.566Z,2.50
2023-05-21T01:58:24.202Z,2.80
2023-05-21T01:59:26.210Z,2.63
2023-05-21T02:00:32.599Z,2.63
2023-05-21T02:01:34.997Z,3.00
2023-05-21T02:02:37.018Z,2.60
2023-05-21T02:03:38.971Z,2.47
2023-05-21T02:04:41.491Z,2.63
2023-05-21T02:05:43.764Z,2.50
2023-05-21T02:06:45.753Z,2.50
2023-05-21T02:07:48.284Z,2.80
2023-05-21T02:08:50.269Z,2.87
2023-05-21T02:09:52.156Z,2.40
2023-05-21T02:10:54.083Z,2.60
2023-05-21T02:11:56.605Z,2.57
2023-05-21T02:12:59.339Z,2.40
2023-05-21T02:14:01.371Z,2.53
2023-05-21T02:15:03.994Z,2.60
2023-05-21T02:16:10.176Z,2.40
2023-05-21T02:17:12.037Z,2.70
2023-05-21T02:18:18.495Z,2.20
2023-05-21T02:19:20.707Z,2.00
2023-05-21T02:20:22.939Z,2.97
2023-05-21T02:21:24.787Z,2.57
2023-05-21T02:22:26.707Z,2.60
2023-05-21T02:23:28.613Z,2.63
2023-05-21T02:24:31.419Z,2.50
2023-05-21T02:25:33.933Z,2.10
2023-05-21T02:26:36.193Z,2.53
2023-05-21T02:27:40.709Z,2.60
2023-05-21T02:28:42.598Z,2.37
2023-05-21T02:29:44.593Z,2.40
2023-05-21T02:30:46.482Z,2.30
2023-05-21T02:31:48.407Z,2.57
2023-05-21T02:32:50.828Z,2.43
2023-05-21T02:33:52.884Z,2.65
2023-05-21T02:34:54.934Z,2.50
2023-05-21T02:35:56.973Z,2.37
2023-05-21T02:36:59.221Z,2.60
2023-05-21T02:38:03.175Z,2.10
2023-05-21T02:39:05.295Z,2.67
2023-05-21T02:40:10.166Z,2.33
2023-05-21T02:41:12.554Z,2.50
2023-05-21T02:42:14.522Z,2.40
2023-05-21T02:43:16.848Z,2.40
2023-05-21T02:44:19.307Z,2.30
2023-05-21T02:45:21.361Z,2.57
2023-05-21T02:46:23.312Z,2.20
2023-05-21T02:47:25.930Z,2.40
2023-05-21T02:48:28.247Z,2.77
2023-05-21T02:49:30.085Z,2.67
2023-05-21T02:50:32.105Z,2.40
2023-05-21T02:51:34.041Z,2.60
2023-05-21T02:52:35.939Z,2.33
2023-05-21T02:53:38.830Z,2.60
2023-05-21T02:54:40.968Z,2.33
2023-05-21T02:55:43.149Z,2.07
2023-05-21T02:56:45.241Z,2.60
2023-05-21T02:57:48.110Z,2.47
2023-05-21T02:58:50.006Z,2.70
2023-05-21T02:59:51.928Z,2.10
2023-05-21T03:00:53.979Z,2.30
2023-05-21T03:01:56.023Z,2.67
2023-05-21T03:02:57.874Z,2.70
2023-05-21T03:04:00.155Z,2.50
2023-05-21T03:05:02.819Z,2.28
2023-05-21T03:06:05.009Z,2.30
2023-05-21T03:07:06.928Z,2.63
2023-05-21T03:08:08.822Z,2.50
2023-05-21T03:09:10.961Z,2.67
2023-05-21T03:10:12.910Z,2.57
2023-05-21T03:11:14.920Z,2.30
2023-05-21T03:12:16.772Z,2.33
2023-05-21T03:13:18.692Z,2.20
2023-05-21T03:14:20.618Z,2.33
2023-05-21T03:15:24.459Z,2.23
2023-05-21T03:16:26.459Z,2.30
2023-05-21T03:17:28.315Z,2.60
2023-05-21T03:18:30.168Z,2.53
2023-05-21T03:19:35.885Z,2.47
2023-05-21T03:20:43.637Z,2.30
2023-05-21T03:21:45.644Z,2.30
2023-05-21T03:22:48.318Z,2.57
2023-05-21T03:23:51.702Z,2.17
2023-05-21T03:24:53.830Z,2.57
2023-05-21T03:25:55.708Z,2.43
2023-05-21T03:26:57.575Z,1.83
2023-05-21T03:27:59.702Z,2.17
2023-05-21T03:29:01.571Z,2.60
2023-05-21T03:30:06.026Z,2.37
2023-05-21T03:31:08.565Z,2.70
2023-05-21T03:32:10.772Z,2.27
2023-05-21T03:33:16.499Z,2.13
2023-05-21T03:34:20.092Z,2.57
2023-05-21T03:35:22.142Z,2.40
2023-05-21T03:36:24.000Z,2.27
2023-05-21T03:37:26.147Z,2.47
2023-05-21T03:38:28.273Z,2.40
2023-05-21T03:39:30.221Z,2.20
2023-05-21T03:40:32.066Z,2.50
2023-05-21T03:41:34.195Z,2.40
2023-05-21T03:42:36.194Z,2.13
2023-05-21T03:43:38.098Z,2.33
2023-05-21T03:44:40.046Z,2.30
2023-05-21T03:45:44.365Z,2.30
2023-05-21T03:46:46.542Z,2.20
2023-05-21T03:47:49.670Z,2.40
2023-05-21T03:48:51.808Z,2.23
2023-05-21T03:49:54.017Z,2.20
2023-05-21T03:50:56.161Z,2.30
2023-05-21T03:51:58.002Z,2.40
2023-05-21T03:52:59.954Z,2.20
2023-05-21T03:54:02.101Z,2.50
2023-05-21T03:55:04.329Z,2.30
2023-05-21T03:56:06.616Z,2.40
2023-05-21T03:57:08.565Z,2.30
2023-05-21T03:58:11.007Z,2.47
2023-05-21T03:59:12.918Z,2.40
2023-05-21T04:00:15.115Z,2.20
2023-05-21T04:01:17.835Z,2.30
2023-05-21T04:02:21.561Z,2.27
2023-05-21T04:03:23.616Z,2.33
2023-05-21T04:04:25.813Z,2.33
2023-05-21T04:05:27.733Z,2.03
2023-05-21T04:06:30.284Z,2.15
2023-05-21T04:07:32.371Z,2.23
2023-05-21T04:08:34.379Z,2.10
2023-05-21T04:09:36.839Z,1.97
2023-05-21T04:10:38.838Z,2.30
2023-05-21T04:11:40.804Z,2.43
2023-05-21T04:12:42.733Z,2.40
2023-05-21T04:13:44.658Z,2.43
2023-05-21T04:14:47.296Z,2.22
2023-05-21T04:15:49.497Z,2.00
2023-05-21T04:16:51.501Z,2.10
2023-05-21T04:17:54.671Z,2.05
2023-05-21T04:18:56.798Z,2.30
2023-05-21T04:19:59.008Z,2.23
2023-05-21T04:21:02.497Z,1.90
2023-05-21T04:22:05.211Z,2.43
2023-05-21T04:23:07.159Z,2.30
2023-05-21T04:24:08.954Z,1.83
2023-05-21T04:25:10.905Z,2.40
2023-05-21T04:26:13.189Z,2.27
2023-05-21T04:27:16.546Z,1.90
2023-05-21T04:28:21.323Z,2.23
2023-05-21T04:29:23.564Z,2.20
2023-05-21T04:30:25.639Z,2.23
2023-05-21T04:31:27.588Z,2.30
2023-05-21T04:32:31.114Z,2.33
2023-05-21T04:33:33.248Z,2.30
2023-05-21T04:34:35.168Z,2.37
2023-05-21T04:35:37.323Z,2.03
2023-05-21T04:36:39.446Z,2.47
2023-05-21T04:37:42.268Z,1.97
2023-05-21T04:38:44.410Z,2.30
2023-05-21T04:39:46.996Z,2.70
2023-05-21T04:40:52.778Z,1.80
2023-05-21T04:41:56.969Z,2.27
2023-05-21T04:43:00.787Z,2.50
2023-05-21T04:44:02.733Z,2.50
2023-05-21T04:45:05.199Z,1.97
2023-05-21T04:46:07.052Z,2.20
2023-05-21T04:47:08.952Z,2.13
2023-05-21T04:48:11.012Z,2.37
2023-05-21T04:49:12.831Z,2.27
2023-05-21T04:50:14.762Z,2.30
2023-05-21T04:51:16.686Z,2.13
2023-05-21T04:52:18.664Z,2.17
2023-05-21T04:53:21.006Z,2.30
2023-05-21T04:54:23.341Z,2.40
2023-05-21T04:55:25.923Z,2.27
2023-05-21T04:56:28.011Z,2.10
2023-05-21T04:57:29.902Z,2.10
2023-05-21T04:58:34.186Z,2.10
2023-05-21T04:59:36.325Z,2.67
2023-05-21T05:00:39.431Z,2.30
2023-05-21T05:01:43.920Z,2.30
2023-05-21T05:02:45.981Z,2.30
2023-05-21T05:03:47.918Z,2.40
2023-05-21T05:04:49.885Z,2.20
2023-05-21T05:05:51.944Z,2.40
2023-05-21T05:06:53.857Z,2.00
2023-05-21T05:07:56.267Z,2.23
2023-05-21T05:08:58.202Z,1.83
2023-05-21T05:10:00.372Z,1.80
2023-05-21T05:11:02.884Z,2.13
2023-05-21T05:12:05.723Z,1.93
2023-05-21T05:13:07.846Z,2.03
2023-05-21T05:14:09.783Z,2.40
2023-05-21T05:15:11.794Z,2.13
2023-05-21T05:16:17.361Z,2.17
2023-05-21T05:17:20.045Z,2.10
2023-05-21T05:18:21.957Z,2.30
2023-05-21T05:19:24.041Z,2.20
2023-05-21T05:20:25.955Z,1.90
2023-05-21T05:21:28.025Z,2.23
2023-05-21T05:22:29.989Z,2.20
2023-05-21T05:23:32.070Z,2.20
2023-05-21T05:24:34.052Z,2.30
2023-05-21T05:25:36.221Z,2.40
2023-05-21T05:26:38.221Z,2.20
2023-05-21T05:27:40.423Z,2.50
2023-05-21T05:28:42.229Z,2.40
2023-05-21T05:29:48.256Z,2.40
2023-05-21T05:30:50.200Z,2.30
2023-05-21T05:31:52.148Z,1.90
2023-05-21T05:32:54.043Z,2.17
2023-05-21T05:33:56.273Z,1.90
2023-05-21T05:34:59.137Z,1.97
2023-05-21T05:36:02.553Z,1.87
2023-05-21T05:37:05.349Z,2.27
2023-05-21T05:38:09.100Z,2.20
2023-05-21T05:39:11.234Z,2.20
2023-05-21T05:40:13.288Z,2.40
2023-05-21T05:41:15.278Z,2.33
2023-05-21T05:42:17.118Z,1.87
2023-05-21T05:43:19.152Z,2.00
2023-05-21T05:44:21.045Z,2.03
2023-05-21T05:45:23.055Z,2.00
2023-05-21T05:46:24.927Z,2.07
2023-05-21T05:47:26.857Z,2.10
2023-05-21T05:48:29.437Z,2.00
2023-05-21T05:49:31.301Z,2.00
2023-05-21T05:50:33.395Z,2.23
2023-05-21T05:51:35.312Z,2.00
2023-05-21T05:52:37.496Z,2.03
2023-05-21T05:53:39.652Z,2.10
2023-05-21T05:54:41.646Z,2.17
2023-05-21T05:55:43.862Z,2.20
2023-05-21T05:56:45.896Z,2.17
2023-05-21T05:57:47.962Z,1.93
2023-05-21T05:58:49.845Z,2.20
2023-05-21T05:59:51.775Z,2.03
2023-05-21T06:00:54.253Z,2.20
2023-05-21T06:01:56.135Z,1.80
2023-05-21T06:02:58.137Z,2.27
2023-05-21T06:04:00.289Z,2.10
2023-05-21T06:05:02.853Z,2.00
2023-05-21T06:06:04.810Z,1.70
2023-05-21T06:07:06.730Z,2.10
2023-05-21T06:08:08.600Z,2.20
2023-05-21T06:09:11.051Z,1.93
2023-05-21T06:10:13.040Z,2.20
2023-05-21T06:11:19.264Z,2.10
2023-05-21T06:12:21.301Z,2.10
2023-05-21T06:13:23.200Z,2.10
2023-05-21T06:14:25.010Z,1.87
2023-05-21T06:15:26.868Z,1.90
2023-05-21T06:16:31.501Z,1.67
2023-05-21T06:17:34.823Z,1.90
2023-05-21T06:18:37.530Z,2.33
2023-05-21T06:19:40.210Z,2.00
2023-05-21T06:20:42.199Z,1.97
2023-05-21T06:21:44.026Z,2.03
2023-05-21T06:22:46.011Z,2.30
2023-05-21T06:23:48.096Z,2.20
2023-05-21T06:24:50.030Z,1.97
2023-05-21T06:25:51.941Z,1.70
2023-05-21T06:26:53.826Z,1.77
2023-05-21T06:27:56.866Z,2.20
2023-05-21T06:28:59.027Z,1.80
2023-05-21T06:30:00.886Z,1.90
2023-05-21T06:31:02.834Z,2.10
2023-05-21T06:32:05.108Z,1.90
2023-05-21T06:33:07.198Z,1.83
2023-05-21T06:34:09.157Z,2.00
2023-05-21T06:35:11.547Z,2.07
2023-05-21T06:36:13.651Z,1.93
2023-05-21T06:37:21.490Z,2.80
2023-05-21T06:38:23.580Z,1.93
2023-05-21T06:39:27.093Z,1.90
2023-05-21T06:40:29.062Z,1.97
2023-05-21T06:41:31.082Z,2.00
2023-05-21T06:42:33.016Z,1.80
2023-05-21T06:43:34.990Z,1.95
2023-05-21T06:44:37.022Z,2.00
2023-05-21T06:45:39.708Z,2.20
2023-05-21T06:46:43.014Z,2.20
2023-05-21T06:47:44.975Z,2.07
2023-05-21T06:48:47.235Z,1.87
2023-05-21T06:49:49.320Z,2.40
2023-05-21T06:50:51.534Z,2.20
2023-05-21T06:51:53.425Z,1.83
2023-05-21T06:52:55.562Z,2.13
2023-05-21T06:53:57.389Z,1.80
2023-05-21T06:54:59.259Z,2.17
2023-05-21T06:56:01.363Z,1.80
2023-05-21T06:57:03.346Z,1.90
2023-05-21T06:58:06.615Z,2.30
2023-05-21T06:59:08.788Z,2.10
2023-05-21T07:00:12.181Z,1.75
2023-05-21T07:01:14.116Z,1.83
2023-05-21T07:02:17.023Z,2.77
2023-05-21T07:03:19.058Z,2.10
2023-05-21T07:04:21.034Z,1.90
2023-05-21T07:05:23.168Z,1.67
2023-05-21T07:06:25.280Z,1.93
2023-05-21T07:07:27.380Z,2.10
2023-05-21T07:08:29.588Z,1.83
2023-05-21T07:09:31.724Z,1.70
2023-05-21T07:10:33.647Z,2.00
2023-05-21T07:11:35.769Z,2.30
2023-05-21T07:12:37.627Z,2.13
2023-05-21T07:13:39.738Z,1.93
2023-05-21T07:14:41.914Z,2.20
2023-05-21T07:15:44.066Z,1.87
2023-05-21T07:16:46.018Z,1.97
2023-05-21T07:17:48.134Z,2.10
2023-05-21T07:18:50.264Z,1.80
2023-05-21T07:19:52.386Z,1.90
2023-05-21T07:20:54.236Z,1.70
2023-05-21T07:21:57.928Z,2.27
2023-05-21T07:22:59.935Z,1.80
2023-05-21T07:24:02.123Z,2.13
2023-05-21T07:25:04.954Z,2.07
2023-05-21T07:26:06.973Z,1.60
2023-05-21T07:27:24.281Z,1.85
2023-05-21T07:28:27.523Z,2.20
2023-05-21T07:29:29.345Z,1.83
2023-05-21T07:30:31.199Z,1.93
2023-05-21T07:31:33.176Z,2.03
2023-05-21T07:32:35.252Z,2.20
2023-05-21T07:33:37.184Z,2.13
2023-05-21T07:34:39.060Z,1.73
2023-05-21T07:35:41.035Z,1.70
2023-05-21T07:36:43.015Z,2.13
2023-05-21T07:37:44.949Z,2.13
2023-05-21T07:38:46.829Z,2.20
2023-05-21T07:39:48.678Z,2.20
2023-05-21T07:40:50.496Z,2.00
2023-05-21T07:41:52.424Z,1.97
2023-05-21T07:42:54.696Z,2.43
2023-05-21T07:43:56.631Z,1.83
2023-05-21T07:44:58.492Z,3.60
2023-05-21T07:46:00.538Z,2.90
2023-05-21T07:47:02.570Z,3.42
2023-05-21T07:48:04.684Z,4.72
2023-05-21T07:49:06.900Z,2.47
2023-05-21T07:50:09.519Z,5.07
2023-05-21T07:51:12.159Z,2.70
2023-05-21T07:52:14.010Z,1.87
2023-05-21T07:53:17.529Z,2.33
2023-05-21T07:54:19.783Z,2.38
2023-05-21T07:55:21.806Z,2.27
2023-05-21T07:56:23.763Z,2.37
2023-05-21T07:57:26.172Z,3.40
2023-05-21T07:58:28.138Z,2.42
2023-05-21T07:59:30.068Z,4.97
2023-05-21T08:00:47.638Z,2.77
2023-05-21T08:01:49.641Z,3.93
2023-05-21T08:02:52.572Z,3.03
2023-05-21T08:03:54.812Z,2.60
2023-05-21T08:04:57.989Z,4.37
2023-05-21T08:05:59.986Z,4.50
2023-05-21T08:07:01.958Z,5.80
2023-05-21T08:08:05.546Z,7.07
2023-05-21T08:09:08.067Z,6.27
2023-05-21T08:10:10.197Z,5.87
2023-05-21T08:11:12.018Z,6.97
2023-05-21T08:12:16.585Z,5.47
2023-05-21T08:13:18.530Z,5.67
2023-05-21T08:14:20.361Z,5.57
2023-05-21T08:15:22.770Z,5.95
2023-05-21T08:16:24.816Z,6.10
2023-05-21T08:17:28.468Z,6.55
2023-05-21T08:18:30.664Z,6.20
2023-05-21T08:19:33.006Z,6.17
2023-05-21T08:20:35.111Z,6.65
2023-05-21T08:21:37.311Z,7.67
2023-05-21T08:22:39.464Z,6.20
2023-05-21T08:23:41.293Z,6.13
2023-05-21T08:24:43.364Z,5.33
2023-05-21T08:25:45.245Z,5.30
2023-05-21T08:26:48.545Z,5.97
2023-05-21T08:27:52.344Z,6.53
2023-05-21T08:28:54.651Z,5.63
2023-05-21T08:29:56.608Z,6.10
2023-05-21T08:30:58.757Z,5.83
2023-05-21T08:32:01.016Z,5.87
2023-05-21T08:33:02.939Z,5.87
2023-05-21T08:34:04.852Z,6.38
2023-05-21T08:35:08.706Z,6.43
2023-05-21T08:36:10.673Z,6.10
2023-05-21T08:37:12.530Z,6.00
2023-05-21T08:38:16.892Z,5.97
2023-05-21T08:39:18.770Z,6.00
2023-05-21T08:40:20.978Z,6.10
2023-05-21T08:41:24.598Z,6.07
2023-05-21T08:42:47.300Z,5.60
2023-05-21T08:43:58.356Z,5.43
2023-05-21T08:45:01.190Z,5.67
2023-05-21T08:46:05.011Z,6.30
2023-05-21T08:47:13.131Z,5.97
2023-05-21T08:48:17.841Z,6.10
2023-05-21T08:49:28.661Z,5.90
2023-05-21T08:50:32.797Z,6.23
2023-05-21T08:51:34.974Z,4.87
2023-05-21T08:52:37.403Z,5.07
2023-05-21T08:53:39.343Z,5.43
2023-05-21T08:54:42.058Z,5.70
2023-05-21T08:55:44.770Z,10.80
2023-05-21T08:56:49.932Z,6.40
2023-05-21T08:57:55.054Z,6.37
2023-05-21T08:58:58.721Z,5.90
2023-05-21T09:00:02.027Z,5.37
2023-05-21T09:01:05.391Z,6.03
2023-05-21T09:02:08.854Z,5.20
2023-05-21T09:03:13.737Z,4.77
2023-05-21T09:04:21.284Z,5.17
2023-05-21T09:05:25.236Z,4.87
2023-05-21T09:06:27.756Z,4.53
2023-05-21T09:07:31.768Z,4.67
2023-05-21T09:08:39.051Z,4.20
2023-05-21T09:09:54.163Z,4.60
2023-05-21T09:10:56.158Z,4.27
2023-05-21T09:11:58.018Z,4.50
2023-05-21T09:13:00.850Z,4.90
2023-05-21T09:14:04.062Z,5.53
2023-05-21T09:15:07.638Z,4.97
2023-05-21T09:16:11.019Z,3.73
2023-05-21T09:17:15.480Z,4.23
2023-05-21T09:18:17.511Z,4.00
2023-05-21T09:19:23.004Z,4.30
2023-05-21T09:20:26.858Z,4.67
2023-05-21T09:21:31.421Z,4.33
2023-05-21T09:22:33.697Z,4.00
2023-05-21T09:23:35.670Z,5.37
2023-05-21T09:24:37.549Z,4.23
2023-05-21T09:25:40.007Z,4.83
2023-05-21T09:26:45.128Z,5.33
2023-05-21T09:27:47.211Z,4.20
2023-05-21T09:28:49.155Z,4.82
2023-05-21T09:29:51.373Z,4.05
2023-05-21T09:30:56.169Z,5.13
2023-05-21T09:31:59.305Z,4.00
2023-05-21T09:33:01.710Z,3.73
2023-05-21T09:34:03.806Z,3.60
2023-05-21T09:35:10.782Z,3.67
2023-05-21T09:36:13.097Z,3.88
2023-05-21T09:37:26.530Z,4.70
2023-05-21T09:38:30.299Z,3.97
2023-05-21T09:39:32.093Z,4.07
2023-05-21T09:40:36.026Z,4.10
2023-05-21T09:41:38.603Z,3.33
2023-05-21T09:42:41.907Z,4.47
2023-05-21T09:43:44.769Z,4.03
2023-05-21T09:44:48.107Z,3.80
2023-05-21T09:45:55.425Z,4.17
2023-05-21T09:46:59.636Z,4.53
2023-05-21T09:48:01.675Z,3.47
2023-05-21T09:49:03.567Z,4.00
2023-05-21T09:50:06.642Z,3.83
2023-05-21T09:51:19.839Z,4.60
2023-05-21T09:52:28.516Z,4.50
2023-05-21T09:53:30.409Z,4.27
2023-05-21T09:54:34.295Z,3.70
2023-05-21T09:55:36.691Z,5.55
2023-05-21T09:56:40.466Z,4.10
2023-05-21T09:57:43.591Z,3.80
2023-05-21T09:58:46.281Z,3.63
2023-05-21T09:59:50.899Z,4.10
2023-05-21T10:00:53.547Z,3.40
2023-05-21T10:01:55.628Z,3.78
2023-05-21T10:03:01.571Z,3.97
2023-05-21T10:04:08.405Z,4.10
2023-05-21T10:05:14.615Z,3.70
2023-05-21T10:06:19.152Z,4.13
2023-05-21T10:07:26.405Z,4.20
2023-05-21T10:08:35.977Z,3.60
2023-05-21T10:09:38.960Z,3.33
2023-05-21T10:10:43.721Z,3.70
2023-05-21T10:11:49.631Z,3.67
2023-05-21T10:13:09.317Z,3.63
2023-05-21T10:14:22.509Z,3.38
2023-05-21T10:15:26.379Z,3.63
2023-05-21T10:16:32.785Z,3.47
2023-05-21T10:17:35.558Z,3.83
2023-05-21T10:18:40.017Z,3.17
2023-05-21T10:19:43.875Z,3.22
2023-05-21T10:20:46.725Z,3.63
2023-05-21T10:21:51.949Z,3.30
2023-05-21T10:22:55.869Z,3.10
2023-05-21T10:23:58.559Z,3.50
2023-05-21T10:25:03.683Z,2.78
2023-05-21T10:26:08.195Z,3.20
2023-05-21T10:27:11.681Z,3.57
2023-05-21T10:28:18.279Z,3.10
2023-05-21T10:29:22.945Z,3.37
2023-05-21T10:30:25.643Z,3.80
2023-05-21T10:31:28.590Z,3.43
2023-05-21T10:32:32.185Z,3.35
2023-05-21T10:33:36.528Z,3.30
2023-05-21T10:34:38.965Z,2.92
2023-05-21T10:35:41.174Z,3.30
2023-05-21T10:36:44.971Z,3.20
2023-05-21T10:37:47.167Z,3.55
2023-05-21T10:38:49.228Z,3.22
2023-05-21T10:39:52.349Z,3.08
2023-05-21T10:40:55.808Z,2.90
2023-05-21T10:42:38.179Z,3.30
2023-05-21T10:44:26.685Z,2.88
2023-05-21T10:46:05.761Z,2.67
2023-05-21T10:47:58.854Z,3.30
2023-05-21T10:49:50.982Z,2.97
2023-05-21T10:51:36.975Z,3.03
2023-05-21T10:53:17.121Z,2.58
2023-05-21T10:55:14.749Z,2.70
2023-05-21T10:56:46.697Z,2.53
2023-05-21T10:58:15.185Z,2.50
2023-05-21T10:59:46.728Z,3.03
2023-05-21T11:00:50.094Z,2.53
2023-05-21T11:01:53.196Z,3.00
2023-05-21T11:02:56.029Z,2.40
2023-05-21T11:03:58.326Z,3.07
2023-05-21T11:05:02.080Z,2.90
2023-05-21T11:06:06.592Z,2.40
2023-05-21T11:07:09.150Z,3.08
2023-05-21T11:08:31.666Z,2.85
2023-05-21T11:09:33.841Z,2.88
2023-05-21T11:10:41.094Z,2.90
2023-05-21T11:12:00.281Z,2.70
2023-05-21T11:13:19.844Z,2.95
2023-05-21T11:14:39.566Z,2.90
2023-05-21T11:16:05.262Z,2.53
2023-05-21T11:17:10.291Z,3.00
2023-05-21T11:18:14.420Z,2.60
2023-05-21T11:19:20.073Z,2.75
2023-05-21T11:20:34.603Z,2.42
2023-05-21T11:21:36.729Z,3.00
2023-05-21T11:22:38.851Z,3.05
2023-05-21T11:24:01.328Z,2.72
2023-05-21T11:25:04.084Z,3.08
2023-05-21T11:26:07.242Z,2.95
2023-05-21T11:27:09.711Z,2.70
2023-05-21T11:28:11.567Z,2.93
2023-05-21T11:29:14.642Z,2.58
2023-05-21T11:30:19.619Z,2.72
2023-05-21T11:31:30.387Z,2.38
2023-05-21T11:32:32.396Z,2.67
2023-05-21T11:33:34.354Z,2.85
2023-05-21T11:34:48.939Z,2.80
2023-05-21T11:35:54.355Z,2.78
2023-05-21T11:37:23.355Z,2.95
2023-05-21T11:38:31.128Z,2.70
2023-05-21T11:39:40.342Z,2.72
2023-05-21T11:40:55.189Z,2.80
2023-05-21T11:42:01.731Z,2.58
2023-05-21T11:43:06.189Z,2.65
2023-05-21T11:44:09.242Z,2.72
2023-05-21T11:45:11.363Z,2.92
2023-05-21T11:46:15.011Z,2.65
2023-05-21T11:47:19.065Z,2.58
2023-05-21T11:48:27.364Z,2.47
2023-05-21T11:49:31.559Z,2.83
2023-05-21T11:50:34.747Z,2.65
2023-05-21T11:51:37.178Z,2.70
2023-05-21T11:52:40.490Z,2.53
2023-05-21T11:53:44.326Z,2.30
2023-05-21T11:54:55.625Z,2.72
2023-05-21T11:56:00.073Z,2.58
2023-05-21T11:57:06.011Z,2.60
2023-05-21T11:58:09.273Z,2.83
2023-05-21T11:59:17.995Z,2.80
2023-05-21T12:00:21.610Z,3.08
2023-05-21T12:01:24.937Z,3.10
2023-05-21T12:02:32.112Z,2.80
2023-05-21T12:03:37.364Z,3.10
2023-05-21T12:04:39.430Z,2.60
2023-05-21T12:05:49.045Z,3.10
2023-05-21T12:06:51.949Z,2.72
2023-05-21T12:07:54.972Z,2.92
2023-05-21T12:08:58.266Z,2.92
2023-05-21T12:10:01.330Z,2.88
2023-05-21T12:11:03.357Z,3.20
2023-05-21T12:12:06.548Z,3.33
2023-05-21T12:13:08.719Z,3.00
2023-05-21T12:14:11.393Z,3.25
2023-05-21T12:15:13.844Z,3.00
2023-05-21T12:16:15.862Z,3.15
2023-05-21T12:17:20.258Z,2.95
2023-05-21T12:18:22.537Z,3.40
2023-05-21T12:19:24.659Z,3.08
2023-05-21T12:20:28.438Z,2.90
2023-05-21T12:21:31.537Z,3.45
2023-05-21T12:22:33.392Z,3.47
2023-05-21T12:23:36.363Z,3.50
2023-05-21T12:24:39.453Z,3.35
2023-05-21T12:25:41.828Z,3.22
2023-05-21T12:26:48.139Z,3.10
2023-05-21T12:27:57.911Z,3.50
2023-05-21T12:29:00.181Z,4.05
2023-05-21T12:30:02.347Z,3.72
2023-05-21T12:31:04.405Z,3.72
2023-05-21T12:32:09.948Z,3.90
2023-05-21T12:33:12.182Z,4.10
2023-05-21T12:34:15.551Z,4.00
2023-05-21T12:35:23.070Z,3.55
2023-05-21T12:36:34.267Z,4.55
2023-05-21T12:37:36.226Z,4.88
2023-05-21T12:38:38.112Z,4.22
2023-05-21T12:39:45.394Z,4.32
2023-05-21T12:40:47.432Z,4.35
2023-05-21T12:41:54.632Z,4.93
2023-05-21T12:42:56.695Z,4.10
2023-05-21T12:43:58.717Z,5.53
2023-05-21T12:45:06.307Z,5.57
2023-05-21T12:46:08.398Z,4.38
2023-05-21T12:47:11.875Z,4.45
2023-05-21T12:48:13.817Z,4.45
2023-05-21T12:49:48.037Z,4.40
2023-05-21T12:50:52.154Z,5.85
2023-05-21T12:51:56.987Z,4.95
2023-05-21T12:52:59.209Z,4.35
2023-05-21T12:54:02.222Z,4.68
2023-05-21T12:55:06.557Z,4.80
2023-05-21T12:56:15.953Z,5.72
2023-05-21T12:57:23.525Z,3.78
2023-05-21T12:58:25.601Z,4.18
2023-05-21T12:59:27.588Z,4.90
2023-05-21T13:00:29.616Z,4.78
2023-05-21T13:01:31.604Z,4.60
2023-05-21T13:02:40.784Z,3.95
2023-05-21T13:03:43.255Z,4.95
2023-05-21T13:04:45.484Z,4.85
2023-05-21T13:05:47.844Z,4.55
2023-05-21T13:06:50.096Z,3.78
2023-05-21T13:07:52.085Z,4.40
2023-05-21T13:08:55.752Z,4.70
2023-05-21T13:09:58.919Z,4.00
2023-05-21T13:11:04.785Z,3.58
2023-05-21T13:12:07.007Z,4.00
2023-05-21T13:13:09.076Z,4.20
2023-05-21T13:14:11.126Z,4.55
2023-05-21T13:15:13.214Z,3.75
2023-05-21T13:16:15.389Z,4.53
2023-05-21T13:17:18.691Z,4.05
2023-05-21T13:18:21.743Z,3.80
2023-05-21T13:19:23.665Z,3.65
2023-05-21T13:20:27.860Z,3.80
2023-05-21T13:21:29.817Z,3.95
2023-05-21T13:22:31.968Z,3.20
2023-05-21T13:23:33.843Z,3.72
2023-05-21T13:24:37.022Z,3.75
2023-05-21T13:25:39.252Z,3.50
2023-05-21T13:26:41.448Z,3.85
2023-05-21T13:27:44.636Z,3.70
2023-05-21T13:28:46.766Z,4.18
2023-05-21T13:29:48.632Z,3.60
2023-05-21T13:30:53.099Z,3.55
2023-05-21T13:31:54.919Z,3.78
2023-05-21T13:32:56.844Z,3.50
2023-05-21T13:33:58.758Z,3.55
2023-05-21T13:35:01.118Z,3.58
2023-05-21T13:36:04.329Z,3.40
2023-05-21T13:37:06.752Z,3.10
2023-05-21T13:38:08.571Z,4.00
2023-05-21T13:39:10.641Z,3.30
2023-05-21T13:40:15.643Z,3.58
2023-05-21T13:41:17.884Z,3.40
2023-05-21T13:42:21.296Z,3.75
2023-05-21T13:43:23.324Z,3.67
2023-05-21T13:44:25.250Z,3.50
2023-05-21T13:45:29.249Z,3.42
2023-05-21T13:46:31.661Z,3.47
2023-05-21T13:47:35.744Z,3.22
2023-05-21T13:48:40.337Z,3.28
2023-05-21T13:49:42.883Z,5.20
2023-05-21T13:50:44.799Z,3.60
2023-05-21T13:51:46.688Z,3.47
2023-05-21T13:52:49.173Z,3.65
2023-05-21T13:53:51.234Z,3.65
2023-05-21T13:54:53.546Z,3.80
2023-05-21T13:55:55.654Z,3.67
2023-05-21T13:56:57.992Z,3.10
2023-05-21T13:58:00.062Z,3.38
2023-05-21T13:59:02.225Z,3.35
2023-05-21T14:00:05.322Z,3.60
2023-05-21T14:01:07.588Z,3.20
2023-05-21T14:02:10.638Z,3.20
2023-05-21T14:03:12.659Z,3.15
2023-05-21T14:04:14.867Z,3.28
2023-05-21T14:05:16.766Z,2.95
2023-05-21T14:06:19.028Z,3.33
2023-05-21T14:07:22.268Z,3.47
2023-05-21T14:08:27.790Z,2.72
2023-05-21T14:09:31.148Z,3.13
2023-05-21T14:10:32.963Z,3.33
2023-05-21T14:11:35.248Z,3.53
2023-05-21T14:12:38.525Z,3.75